Time;durP1;ratioP1;P1;durP2;ratioP2;P2;SDS_P1;SDS_P2;PMS_P1;PMS_P2;Temp;Humidity;BMP_temperature;BMP_pressure;BME280_temperature;BME280_humidity;BME280_pressure;Samples;Min_cycle;Max_cycle;Signal;HPM_P1;HPM_P2
2021/01/26 00:01:30;;;;;;;10.18;7.80;;;4.90;1.00;;;;;;5035149;28;20036;-82
2021/01/26 00:03:56;;;;;;;9.55;7.70;;;4.90;1.00;;;;;;5034249;28;20395;-82
2021/01/26 00:06:21;;;;;;;10.55;7.88;;;4.40;1.00;;;;;;5034781;28;20049;-82
2021/01/26 00:08:47;;;;;;;10.95;7.97;;;4.10;1.00;;;;;;5034565;28;20033;-82
2021/01/26 00:11:13;;;;;;;10.32;8.10;;;4.60;1.00;;;;;;5034003;28;20538;-81
2021/01/26 00:13:39;;;;;;;8.95;7.35;;;4.70;1.00;;;;;;5034772;28;20028;-82
2021/01/26 00:16:05;;;;;;;9.63;7.95;;;4.70;1.00;;;;;;5034789;28;20025;-82
2021/01/26 00:18:30;;;;;;;10.75;8.05;;;3.90;1.00;;;;;;5034084;28;20029;-81
2021/01/26 00:20:56;;;;;;;10.30;7.53;;;4.40;1.00;;;;;;5034589;28;20053;-82
2021/01/26 00:23:22;;;;;;;10.50;8.20;;;4.50;1.00;;;;;;5034330;28;20100;-81
2021/01/26 00:25:48;;;;;;;9.48;7.38;;;4.60;1.00;;;;;;5033870;28;20029;-82
2021/01/26 00:28:16;;;;;;;10.20;7.65;;;4.40;1.00;;;;;;5033788;28;20029;-82
2021/01/26 00:30:43;;;;;;;11.52;8.30;;;3.80;1.00;;;;;;5033957;28;20032;-82
2021/01/26 00:33:15;;;;;;;9.38;7.75;;;4.00;1.00;;;;;;5033782;28;20029;-82
2021/01/26 00:35:41;;;;;;;13.15;8.88;;;4.40;1.00;;;;;;5034276;28;20010;-82
2021/01/26 00:38:07;;;;;;;10.77;7.95;;;4.20;1.00;;;;;;5034457;28;20068;-82
2021/01/26 00:40:33;;;;;;;11.68;8.98;;;4.00;1.00;;;;;;5033787;28;20029;-82
2021/01/26 00:42:59;;;;;;;13.45;9.38;;;4.90;1.00;;;;;;5034330;28;20030;-82
2021/01/26 00:45:27;;;;;;;12.43;9.23;;;4.50;1.00;;;;;;5033642;28;20095;-81
2021/01/26 00:47:53;;;;;;;10.55;8.23;;;4.90;1.00;;;;;;5033797;28;20495;-82
2021/01/26 00:50:20;;;;;;;13.10;8.98;;;4.80;1.00;;;;;;5034143;28;20108;-82
2021/01/26 00:52:46;;;;;;;10.75;8.27;;;4.30;1.00;;;;;;5033817;28;20044;-82
2021/01/26 00:55:13;;;;;;;11.93;8.60;;;4.60;1.00;;;;;;5032965;28;20463;-82
2021/01/26 00:57:40;;;;;;;10.57;8.35;;;4.30;1.00;;;;;;5033524;28;20479;-82
2021/01/26 01:00:11;;;;;;;11.52;8.52;;;4.90;1.00;;;;;;5033774;28;20068;-82
2021/01/26 01:02:36;;;;;;;10.75;8.18;;;4.30;1.00;;;;;;5033321;28;20036;-81
2021/01/26 01:05:03;;;;;;;12.45;8.70;;;4.90;1.00;;;;;;5033368;28;20026;-81
2021/01/26 01:07:28;;;;;;;11.13;8.93;;;4.30;1.00;;;;;;5033388;28;20041;-82
2021/01/26 01:09:54;;;;;;;12.40;9.48;;;4.80;1.00;;;;;;5033293;28;20082;-82
2021/01/26 01:12:20;;;;;;;11.65;8.65;;;4.90;1.00;;;;;;5033319;28;20108;-82
2021/01/26 01:14:45;;;;;;;11.20;8.50;;;4.20;1.00;;;;;;5033766;28;20026;-82
2021/01/26 01:17:11;;;;;;;11.15;8.90;;;4.40;1.00;;;;;;5033125;28;20395;-82
2021/01/26 01:19:37;;;;;;;10.48;8.60;;;4.60;1.00;;;;;;5032669;28;20028;-82
2021/01/26 01:22:02;;;;;;;11.40;8.27;;;4.40;1.00;;;;;;5033778;28;20395;-82
2021/01/26 01:24:28;;;;;;;10.55;8.43;;;4.80;1.00;;;;;;5032867;28;20034;-82
2021/01/26 01:26:54;;;;;;;11.93;8.70;;;4.60;1.00;;;;;;5032573;28;20029;-82
2021/01/26 01:29:19;;;;;;;11.05;8.65;;;4.20;1.00;;;;;;5032599;28;20028;-82
2021/01/26 01:31:45;;;;;;;12.95;9.40;;;3.80;1.00;;;;;;5032467;28;20052;-82
2021/01/26 01:34:10;;;;;;;13.25;9.02;;;4.10;1.00;;;;;;5033304;28;20017;-81
2021/01/26 01:36:37;;;;;;;12.35;8.48;;;4.30;1.00;;;;;;5033256;28;20029;-82
2021/01/26 01:39:05;;;;;;;12.05;9.10;;;3.50;1.00;;;;;;5033145;28;20022;-82
2021/01/26 01:41:33;;;;;;;10.50;8.10;;;3.50;1.00;;;;;;5031900;28;20035;-81
2021/01/26 01:43:59;;;;;;;12.30;8.32;;;3.50;1.00;;;;;;5032931;28;20013;-81
2021/01/26 01:46:28;;;;;;;13.38;8.90;;;4.10;1.00;;;;;;5032295;28;20467;-82
2021/01/26 01:48:58;;;;;;;12.32;8.65;;;3.80;1.00;;;;;;5032266;28;20100;-82
2021/01/26 01:51:25;;;;;;;10.80;8.18;;;4.00;1.00;;;;;;5032112;28;20079;-82
2021/01/26 01:54:07;;;;;;;12.88;9.05;;;3.70;1.00;;;;;;5017714;28;20025;-81
2021/01/26 01:56:51;;;;;;;11.95;8.85;;;3.70;1.00;;;;;;5032379;28;20033;-82
2021/01/26 01:59:25;;;;;;;12.45;8.82;;;3.60;1.00;;;;;;5031924;28;20037;-82
2021/01/26 02:01:51;;;;;;;12.25;8.73;;;3.80;1.00;;;;;;5031172;28;20422;-81
2021/01/26 02:04:20;;;;;;;13.77;8.90;;;3.80;1.00;;;;;;5032561;28;20029;-82
2021/01/26 02:06:50;;;;;;;13.30;9.10;;;3.20;1.00;;;;;;5032197;28;20048;-81
2021/01/26 02:09:22;;;;;;;12.98;9.23;;;3.50;1.00;;;;;;5031970;28;20030;-82
2021/01/26 02:11:48;;;;;;;11.75;8.65;;;3.60;1.00;;;;;;5032394;28;20368;-82
2021/01/26 02:14:14;;;;;;;13.70;9.45;;;3.30;1.00;;;;;;5032819;28;20032;-82
2021/01/26 02:16:55;;;;;;;13.45;10.00;;;3.50;1.00;;;;;;5031945;28;20045;-82
2021/01/26 02:19:58;;;;;;;11.98;8.88;;;3.30;1.00;;;;;;5032615;28;20106;-82
2021/01/26 02:22:42;;;;;;;11.88;8.43;;;3.20;1.00;;;;;;5032301;28;20040;-82
2021/01/26 02:25:26;;;;;;;13.15;8.65;;;3.60;1.00;;;;;;5030280;28;20033;-82
2021/01/26 02:28:04;;;;;;;13.40;9.13;;;3.30;1.00;;;;;;5032664;28;20029;-82
2021/01/26 02:31:02;;;;;;;12.75;9.32;;;3.00;1.00;;;;;;5031922;28;20040;-82
2021/01/26 02:33:46;;;;;;;16.70;9.48;;;3.00;1.00;;;;;;5031195;28;20025;-82
2021/01/26 02:36:33;;;;;;;13.27;9.40;;;3.00;1.00;;;;;;5032468;28;20422;-82
2021/01/26 02:39:31;;;;;;;13.18;9.32;;;2.90;1.00;;;;;;5030596;28;20036;-82
2021/01/26 02:42:30;;;;;;;13.02;9.05;;;3.10;1.00;;;;;;5032461;28;20495;-82
2021/01/26 02:45:15;;;;;;;11.38;8.50;;;3.30;1.00;;;;;;5031953;28;20479;-82
2021/01/26 02:48:02;;;;;;;13.43;9.38;;;3.10;1.00;;;;;;5032048;28;20526;-82
2021/01/26 02:50:49;;;;;;;13.85;9.38;;;3.70;1.00;;;;;;5030970;28;20037;-82
2021/01/26 02:53:23;;;;;;;12.55;8.25;;;3.10;1.00;;;;;;5032287;28;20025;-82
2021/01/26 02:56:18;;;;;;;13.30;8.82;;;2.80;1.00;;;;;;5031770;28;20036;-82
2021/01/26 02:58:57;;;;;;;13.45;8.73;;;2.80;1.00;;;;;;5031638;28;20033;-82
2021/01/26 03:01:27;;;;;;;12.85;8.88;;;2.80;1.00;;;;;;5032347;28;20061;-82
2021/01/26 03:03:59;;;;;;;12.90;8.98;;;3.60;1.00;;;;;;5032206;28;20025;-82
2021/01/26 03:06:29;;;;;;;12.93;9.30;;;2.80;1.00;;;;;;5031947;28;20139;-82
2021/01/26 03:09:30;;;;;;;11.38;8.73;;;2.70;1.00;;;;;;5031074;28;20068;-82
2021/01/26 03:12:24;;;;;;;12.32;8.90;;;2.60;1.00;;;;;;5013794;28;20030;-82
2021/01/26 03:14:58;;;;;;;13.27;9.52;;;2.60;1.00;;;;;;5029925;28;20427;-82
2021/01/26 03:17:37;;;;;;;13.23;9.70;;;2.50;1.00;;;;;;5032144;28;20393;-82
2021/01/26 03:20:14;;;;;;;13.18;9.35;;;2.60;1.00;;;;;;5032096;28;20032;-82
2021/01/26 03:22:44;;;;;;;12.77;8.93;;;2.40;1.00;;;;;;5031918;28;20175;-82
2021/01/26 03:25:11;;;;;;;14.80;10.18;;;3.00;1.00;;;;;;5031704;28;20026;-82
2021/01/26 03:27:42;;;;;;;13.57;9.13;;;2.40;1.00;;;;;;5030950;28;20086;-82
2021/01/26 03:30:12;;;;;;;13.55;9.65;;;2.30;1.00;;;;;;5035315;28;20471;-82
2021/01/26 03:32:43;;;;;;;13.98;9.85;;;2.30;1.00;;;;;;5035646;28;20018;-82
2021/01/26 03:35:10;;;;;;;13.00;9.32;;;2.70;1.00;;;;;;5034353;28;20105;-82
2021/01/26 03:37:38;;;;;;;14.00;9.52;;;2.30;1.00;;;;;;5035427;28;20100;-82
2021/01/26 03:40:06;;;;;;;13.77;9.35;;;2.20;1.00;;;;;;5035429;28;20018;-82
2021/01/26 03:42:34;;;;;;;18.23;9.50;;;2.20;1.00;;;;;;5035216;28;20036;-82
2021/01/26 03:45:00;;;;;;;13.52;9.60;;;3.00;1.00;;;;;;5035632;28;20505;-82
2021/01/26 03:47:32;;;;;;;13.98;9.90;;;2.20;1.00;;;;;;5035308;28;20033;-82
2021/01/26 03:50:12;;;;;;;15.15;9.82;;;2.10;1.00;;;;;;5033858;28;20025;-82
2021/01/26 03:53:01;;;;;;;14.73;9.70;;;2.10;1.00;;;;;;5035384;28;20021;-82
2021/01/26 03:55:46;;;;;;;13.52;9.65;;;2.00;1.00;;;;;;5034993;28;20063;-82
2021/01/26 03:58:22;;;;;;;13.90;9.25;;;2.10;1.00;;;;;;5034946;28;20049;-82
2021/01/26 04:00:57;;;;;;;14.45;9.90;;;1.90;1.00;;;;;;5035262;28;20017;-82
2021/01/26 04:03:53;;;;;;;13.75;9.45;;;1.90;1.00;;;;;;5035161;28;20029;-82
2021/01/26 04:06:34;;;;;;;14.38;9.88;;;1.90;1.00;;;;;;5034906;28;20513;-82
2021/01/26 04:09:09;;;;;;;13.52;9.35;;;1.90;1.00;;;;;;5033033;28;20060;-82
2021/01/26 04:11:49;;;;;;;14.07;9.68;;;2.50;1.00;;;;;;5034191;28;20032;-82
2021/01/26 04:14:33;;;;;;;13.98;9.52;;;1.80;1.00;;;;;;5034690;28;20022;-82
2021/01/26 04:17:06;;;;;;;14.50;9.73;;;1.80;1.00;;;;;;5034802;28;20049;-82
2021/01/26 04:19:37;;;;;;;13.80;9.57;;;1.80;1.00;;;;;;5034679;28;20092;-82
2021/01/26 04:22:07;;;;;;;14.45;10.02;;;1.80;1.00;;;;;;5033583;28;20076;-82
2021/01/26 04:24:34;;;;;;;14.40;9.48;;;1.70;1.00;;;;;;5034065;28;20037;-82
2021/01/26 04:27:03;;;;;;;13.88;9.60;;;1.70;1.00;;;;;;5034459;28;20033;-82
2021/01/26 04:29:29;;;;;;;14.45;9.90;;;1.70;1.00;;;;;;5034814;28;20030;-82
2021/01/26 04:31:55;;;;;;;16.00;10.55;;;2.30;1.00;;;;;;5034585;28;20026;-82
2021/01/26 04:34:20;;;;;;;16.98;10.32;;;1.70;1.00;;;;;;5034480;28;20083;-82
2021/01/26 04:36:46;;;;;;;14.30;9.95;;;2.10;1.00;;;;;;5034429;28;20029;-82
2021/01/26 04:39:12;;;;;;;15.65;10.05;;;1.60;1.00;;;;;;5033967;28;20032;-82
2021/01/26 04:41:48;;;;;;;15.57;10.27;;;1.60;1.00;;;;;;5033491;28;20032;-82
2021/01/26 04:44:43;;;;;;;15.60;10.32;;;2.20;1.00;;;;;;5034523;28;20032;-82
2021/01/26 04:47:28;;;;;;;14.38;9.70;;;1.60;1.00;;;;;;5034283;28;20030;-82
2021/01/26 04:50:29;;;;;;;13.85;9.80;;;1.60;1.00;;;;;;5033982;28;20108;-82
2021/01/26 04:53:01;;;;;;;13.95;9.80;;;1.60;1.00;;;;;;5023399;28;20061;-82
2021/01/26 04:55:27;;;;;;;13.40;9.23;;;1.60;1.00;;;;;;5033835;28;20087;-82
2021/01/26 04:58:29;;;;;;;14.07;9.43;;;2.20;1.00;;;;;;5034091;28;20021;-82
2021/01/26 05:01:21;;;;;;;13.20;8.98;;;1.60;1.00;;;;;;5033956;28;20530;-82
2021/01/26 05:03:59;;;;;;;15.00;10.23;;;1.60;1.00;;;;;;5033843;28;20022;-82
2021/01/26 05:06:33;;;;;;;14.52;10.15;;;1.40;1.00;;;;;;5032573;28;20084;-82
2021/01/26 05:09:02;;;;;;;14.77;10.25;;;1.50;1.00;;;;;;5032655;28;20026;-82
2021/01/26 05:11:32;;;;;;;12.75;9.57;;;2.00;1.00;;;;;;5032942;28;20037;-82
2021/01/26 05:14:05;;;;;;;14.20;9.68;;;1.50;1.00;;;;;;5033797;28;20036;-82
2021/01/26 05:16:49;;;;;;;14.45;10.05;;;1.50;1.00;;;;;;5033950;28;20021;-82
2021/01/26 05:19:20;;;;;;;16.60;10.40;;;1.50;1.00;;;;;;5033679;28;20526;-82
2021/01/26 05:22:04;;;;;;;15.75;10.32;;;1.50;1.00;;;;;;5032560;28;20445;-82
2021/01/26 05:24:46;;;;;;;14.63;10.23;;;1.50;1.00;;;;;;5032807;28;20052;-82
2021/01/26 05:27:11;;;;;;;14.15;9.63;;;1.50;1.00;;;;;;5033418;28;20080;-82
2021/01/26 05:29:37;;;;;;;14.88;10.57;;;1.40;1.00;;;;;;5033304;28;20478;-82
2021/01/26 05:32:05;;;;;;;16.33;10.13;;;1.40;1.00;;;;;;5032011;28;20033;-82
2021/01/26 05:34:34;;;;;;;15.38;10.60;;;1.40;1.00;;;;;;5033495;28;20025;-82
2021/01/26 05:37:00;;;;;;;13.43;9.73;;;1.40;1.00;;;;;;5033175;28;20505;-82
2021/01/26 05:39:50;;;;;;;13.63;9.43;;;1.40;1.00;;;;;;5032393;28;20108;-82
2021/01/26 05:42:17;;;;;;;15.52;10.05;;;1.40;1.00;;;;;;5033389;28;20029;-82
2021/01/26 05:44:54;;;;;;;15.60;10.55;;;1.40;1.00;;;;;;5033355;28;20022;-82
2021/01/26 05:47:27;;;;;;;16.02;10.15;;;1.40;1.00;;;;;;5033202;28;20075;-82
2021/01/26 05:49:53;;;;;;;15.70;10.57;;;1.40;1.00;;;;;;5032301;28;20055;-82
2021/01/26 05:52:21;;;;;;;14.80;10.35;;;1.40;1.00;;;;;;5032085;28;20025;-82
2021/01/26 05:54:52;;;;;;;15.10;10.48;;;1.30;1.00;;;;;;5032920;28;20021;-82
2021/01/26 05:57:36;;;;;;;15.88;10.77;;;1.90;1.00;;;;;;5033147;28;20024;-82
2021/01/26 06:00:16;;;;;;;17.30;10.88;;;1.30;1.00;;;;;;5032520;28;20382;-82
2021/01/26 06:02:42;;;;;;;14.90;10.55;;;1.20;1.00;;;;;;5032607;28;20059;-82
2021/01/26 06:05:10;;;;;;;14.25;10.35;;;1.20;1.00;;;;;;5032411;28;20029;-83
2021/01/26 06:07:37;;;;;;;16.92;10.52;;;1.20;1.00;;;;;;5022077;28;20061;-82
2021/01/26 06:10:17;;;;;;;15.07;11.20;;;2.00;1.00;;;;;;5032504;28;20044;-82
2021/01/26 06:12:54;;;;;;;16.23;10.68;;;1.30;1.00;;;;;;5030725;28;20029;-82
2021/01/26 06:15:27;;;;;;;17.17;11.77;;;1.90;1.00;;;;;;5032754;28;20053;-83
2021/01/26 06:18:11;;;;;;;17.13;11.05;;;1.30;1.00;;;;;;5012974;28;20232;-82
2021/01/26 06:20:38;;;;;;;17.30;11.00;;;1.20;1.00;;;;;;5012994;28;20037;-82
2021/01/26 06:23:20;;;;;;;17.77;11.23;;;1.30;1.00;;;;;;5027317;28;20063;-82
2021/01/26 06:25:58;;;;;;;16.08;11.07;;;1.30;1.00;;;;;;5032310;28;20380;-82
2021/01/26 06:28:47;;;;;;;37.15;22.77;;;1.30;1.00;;;;;;5032409;28;20113;-82
2021/01/26 06:31:47;;;;;;;22.67;15.10;;;1.30;1.00;;;;;;5026784;28;20104;-82
2021/01/26 06:34:36;;;;;;;17.60;12.18;;;1.30;1.00;;;;;;5012538;28;20030;-82
2021/01/26 06:37:13;;;;;;;22.45;15.27;;;1.20;1.00;;;;;;5022042;28;20026;-82
2021/01/26 06:39:39;;;;;;;37.20;21.50;;;1.20;1.00;;;;;;5032146;28;20073;-82
2021/01/26 06:42:19;;;;;;;28.75;18.70;;;1.30;1.00;;;;;;5032237;28;20025;-82
2021/01/26 06:45:01;;;;;;;36.63;23.42;;;1.30;1.00;;;;;;5032159;28;20033;-83
2021/01/26 06:47:36;;;;;;;24.98;17.35;;;1.40;1.00;;;;;;5032378;28;20022;-82
2021/01/26 06:50:38;;;;;;;23.65;15.52;;;1.30;1.00;;;;;;5031761;28;20029;-82
2021/01/26 06:53:36;;;;;;;19.85;14.40;;;1.20;1.00;;;;;;5019180;28;20020;-82
2021/01/26 06:56:32;;;;;;;19.48;13.25;;;1.20;1.00;;;;;;5012639;28;20037;-83
2021/01/26 06:59:19;;;;;;;18.92;13.30;;;1.10;1.00;;;;;;5012421;28;20025;-82
2021/01/26 07:02:12;;;;;;;20.10;12.98;;;1.10;1.00;;;;;;5012538;28;20030;-82
2021/01/26 07:05:09;;;;;;;20.33;13.95;;;1.20;1.00;;;;;;5015039;28;20411;-82
2021/01/26 07:07:59;;;;;;;23.40;16.17;;;1.10;1.00;;;;;;5033883;28;21284;-82
2021/01/26 07:10:45;;;;;;;20.67;14.95;;;1.00;1.00;;;;;;5035272;28;20025;-82
2021/01/26 07:13:37;;;;;;;20.90;13.27;;;1.00;1.00;;;;;;5035428;28;20033;-81
2021/01/26 07:16:15;;;;;;;21.90;14.25;;;1.00;1.00;;;;;;5035857;28;20018;-82
2021/01/26 07:19:25;;;;;;;22.92;14.80;;;0.90;1.00;;;;;;5034188;28;20375;-82
2021/01/26 07:22:15;;;;;;;21.42;14.27;;;1.00;1.00;;;;;;4993731;28;20035;-82
2021/01/26 07:24:54;;;;;;;23.20;14.18;;;1.00;1.00;;;;;;4994146;28;20026;-82
2021/01/26 07:27:41;;;;;;;24.33;15.20;;;0.90;1.00;;;;;;4993681;28;20127;-83
2021/01/26 07:30:20;;;;;;;25.45;15.27;;;1.50;1.00;;;;;;4993778;28;20113;-82
2021/01/26 07:32:57;;;;;;;28.63;15.50;;;1.00;1.00;;;;;;4993971;28;20141;-82
2021/01/26 07:35:53;;;;;;;46.67;32.58;;;1.10;1.00;;;;;;4976646;28;20277;-82
2021/01/26 07:38:34;;;;;;;33.30;22.77;;;1.10;1.00;;;;;;4993825;28;20085;-88
2021/01/26 07:41:06;;;;;;;32.97;20.83;;;1.20;1.00;;;;;;4977011;28;20080;-82
2021/01/26 07:43:43;;;;;;;29.80;19.58;;;1.10;1.00;;;;;;4994282;28;20424;-82
2021/01/26 07:46:35;;;;;;;28.15;18.00;;;1.20;1.00;;;;;;4994840;28;20034;-82
2021/01/26 07:49:19;;;;;;;25.73;16.13;;;1.30;1.00;;;;;;4955339;29;20077;-82
2021/01/26 07:51:48;;;;;;;24.42;14.88;;;1.40;1.00;;;;;;4954088;29;20050;-81
2021/01/26 07:54:47;;;;;;;24.35;15.13;;;1.40;1.00;;;;;;4954036;29;20035;-81
2021/01/26 07:57:15;;;;;;;27.65;17.42;;;1.60;1.00;;;;;;4955679;28;20437;-81
2021/01/26 07:59:52;;;;;;;29.80;19.38;;;1.70;1.00;;;;;;4993630;28;20038;-81
2021/01/26 08:02:29;;;;;;;22.33;14.13;;;1.90;1.00;;;;;;4993809;28;20113;-82
2021/01/26 08:04:55;;;;;;;19.38;13.20;;;2.10;1.00;;;;;;4992987;28;20057;-83
2021/01/26 08:07:30;;;;;;;17.52;12.57;;;2.80;1.00;;;;;;4992034;28;20077;-84
2021/01/26 08:09:58;;;;;;;20.10;13.40;;;2.30;1.00;;;;;;4988367;28;20110;-83
2021/01/26 08:12:30;;;;;;;19.67;13.07;;;2.50;1.00;;;;;;4991293;28;20066;-83
2021/01/26 08:15:08;;;;;;;20.65;13.15;;;2.60;1.00;;;;;;4990483;28;20508;-84
2021/01/26 08:17:36;;;;;;;21.73;13.98;;;2.70;1.00;;;;;;4991443;28;20484;-83
2021/01/26 08:20:07;;;;;;;22.58;15.30;;;3.50;1.00;;;;;;4991852;28;20042;-81
2021/01/26 08:22:42;;;;;;;22.02;15.35;;;3.00;1.00;;;;;;4992822;28;20532;-81
2021/01/26 08:25:22;;;;;;;22.90;15.73;;;3.40;1.00;;;;;;4996217;28;20033;-82
2021/01/26 08:27:51;;;;;;;25.35;16.00;;;4.60;1.00;;;;;;5031657;28;20031;-82
2021/01/26 08:30:36;;;;;;;19.85;14.63;;;6.80;1.00;;;;;;5033382;28;20372;-81
2021/01/26 08:33:06;;;;;;;24.50;14.48;;;8.40;1.00;;;;;;5033392;28;20024;-81
2021/01/26 08:35:33;;;;;;;21.27;15.32;;;11.60;99.90;;;;;;5033758;28;20017;-81
2021/01/26 08:38:00;;;;;;;22.02;14.52;;;13.30;99.90;;;;;;5033894;28;20045;-81
2021/01/26 08:40:28;;;;;;;19.52;14.35;;;15.00;99.90;;;;;;5033696;28;20037;-82
2021/01/26 08:43:05;;;;;;;17.60;12.85;;;16.60;99.90;;;;;;5033737;28;20030;-82
2021/01/26 08:45:32;;;;;;;17.85;12.82;;;17.40;99.90;;;;;;5033512;28;20033;-82
2021/01/26 08:48:07;;;;;;;18.38;13.23;;;17.80;99.90;;;;;;5033244;28;20553;-82
2021/01/26 08:50:35;;;;;;;20.17;12.73;;;18.40;99.90;;;;;;5032136;28;20025;-82
2021/01/26 08:53:15;;;;;;;17.27;13.15;;;19.00;99.90;;;;;;5031883;28;20089;-82
2021/01/26 08:56:22;;;;;;;17.63;12.50;;;19.50;99.90;;;;;;5026011;28;20479;-84
2021/01/26 08:58:48;;;;;;;15.82;12.65;;;19.60;99.90;;;;;;4952177;28;20039;-84
2021/01/26 09:01:22;;;;;;;18.80;12.82;;;19.30;99.90;;;;;;4967456;28;20228;-85
2021/01/26 09:03:48;;;;;;;14.90;12.07;;;20.60;99.90;;;;;;4961374;28;20114;-84
2021/01/26 09:06:43;;;;;;;17.02;12.23;;;20.50;99.90;;;;;;4965534;28;20093;-84
2021/01/26 09:09:30;;;;;;;15.82;12.80;;;21.30;99.90;;;;;;4964496;28;20516;-83
2021/01/26 09:12:00;;;;;;;15.82;12.40;;;20.60;99.90;;;;;;4956746;28;20038;-83
2021/01/26 09:14:38;;;;;;;14.80;12.63;;;21.90;99.90;;;;;;4968795;28;20061;-83
2021/01/26 09:17:08;;;;;;;15.18;11.75;;;21.60;99.90;;;;;;4961170;28;20052;-88
2021/01/26 09:19:43;;;;;;;15.00;12.30;;;22.10;99.90;;;;;;4960739;28;20041;-83
2021/01/26 09:22:29;;;;;;;13.65;12.18;;;22.40;99.90;;;;;;4972058;28;20037;-84
2021/01/26 09:25:20;;;;;;;14.57;12.75;;;23.20;99.90;;;;;;4955884;28;20031;-84
2021/01/26 09:28:01;;;;;;;15.07;12.85;;;23.10;99.90;;;;;;4970583;28;20477;-83
2021/01/26 09:30:28;;;;;;;14.90;13.30;;;23.10;99.90;;;;;;4971281;28;20039;-83
2021/01/26 09:32:59;;;;;;;14.18;12.68;;;23.60;99.90;;;;;;4971771;28;20027;-83
2021/01/26 09:35:35;;;;;;;15.10;13.50;;;23.90;99.90;;;;;;5002462;28;20042;-84
2021/01/26 09:38:14;;;;;;;13.68;12.20;;;24.00;99.90;;;;;;5032859;28;20024;-84
2021/01/26 09:40:54;;;;;;;15.00;13.40;;;24.30;99.90;;;;;;5033216;28;20049;-83
2021/01/26 09:43:21;;;;;;;15.07;12.85;;;24.50;99.90;;;;;;5033229;28;20506;-83
2021/01/26 09:45:57;;;;;;;14.27;12.18;;;24.70;99.90;;;;;;5032456;28;20101;-83
2021/01/26 09:48:31;;;;;;;14.07;12.65;;;24.50;99.90;;;;;;5033106;28;20096;-83
2021/01/26 09:51:19;;;;;;;14.73;13.23;;;23.80;99.90;;;;;;5031506;28;20561;-83
2021/01/26 09:53:48;;;;;;;17.90;12.77;;;24.30;99.90;;;;;;5032590;28;20032;-83
2021/01/26 09:56:20;;;;;;;15.00;13.15;;;24.60;99.90;;;;;;5033410;28;20028;-89
2021/01/26 09:58:49;;;;;;;15.65;12.93;;;25.40;99.90;;;;;;5031209;28;20035;-84
2021/01/26 10:01:15;;;;;;;17.58;14.02;;;25.00;99.90;;;;;;5031852;28;20100;-86
2021/01/26 10:03:41;;;;;;;15.85;13.45;;;25.10;99.90;;;;;;5030857;28;20112;-83
2021/01/26 10:06:08;;;;;;;14.90;13.40;;;25.00;99.90;;;;;;5032678;28;20557;-86
2021/01/26 10:08:35;;;;;;;15.00;13.40;;;24.70;99.90;;;;;;5030924;28;20414;-86
2021/01/26 10:11:19;;;;;;;14.85;13.35;;;25.10;99.90;;;;;;5025772;28;20053;-86
2021/01/26 10:13:47;;;;;;;14.70;13.15;;;25.90;99.90;;;;;;5037078;28;20383;-84
2021/01/26 10:16:34;;;;;;;14.23;12.73;;;26.20;99.90;;;;;;5030471;28;20562;-84
2021/01/26 10:19:07;;;;;;;13.35;12.05;;;26.60;99.90;;;;;;5030853;28;20033;-84
2021/01/26 10:21:33;;;;;;;15.98;12.50;;;27.20;99.90;;;;;;5031340;28;20108;-85
2021/01/26 10:24:06;;;;;;;15.00;13.48;;;27.20;99.90;;;;;;5031014;28;20022;-85
2021/01/26 10:26:42;;;;;;;14.45;12.85;;;26.80;99.90;;;;;;5031235;28;20025;-85
2021/01/26 10:29:12;;;;;;;14.45;12.15;;;27.30;99.90;;;;;;5031977;28;20032;-85
2021/01/26 10:31:48;;;;;;;14.48;13.00;;;27.10;99.90;;;;;;5030806;28;20096;-85
2021/01/26 10:34:30;;;;;;;13.55;12.15;;;26.50;99.90;;;;;;5032341;28;20104;-84
2021/01/26 10:37:08;;;;;;;15.05;13.25;;;25.80;99.90;;;;;;5032355;28;20028;-83
2021/01/26 10:39:34;;;;;;;13.88;12.40;;;26.80;99.90;;;;;;5031295;28;20055;-85
2021/01/26 10:42:16;;;;;;;13.60;12.20;;;26.60;99.90;;;;;;5031902;28;20037;-84
2021/01/26 10:44:51;;;;;;;13.43;11.55;;;27.00;99.90;;;;;;5032222;28;20024;-85
2021/01/26 10:47:28;;;;;;;13.77;12.38;;;25.80;99.90;;;;;;5012420;28;20057;-85
2021/01/26 10:49:59;;;;;;;14.10;12.18;;;26.20;99.90;;;;;;5011058;28;20443;-85
2021/01/26 10:52:47;;;;;;;13.70;10.75;;;26.70;99.90;;;;;;5015952;28;20024;-82
2021/01/26 10:55:19;;;;;;;12.57;11.30;;;27.00;99.90;;;;;;5031598;28;20076;-85
2021/01/26 10:57:46;;;;;;;12.45;11.15;;;26.60;99.90;;;;;;5030910;28;20148;-83
2021/01/26 11:00:23;;;;;;;5.68;5.18;;;26.10;99.90;;;;;;5030509;28;20547;-83
2021/01/26 11:02:50;;;;;;;9.35;7.53;;;26.70;99.90;;;;;;5030314;28;20044;-82
2021/01/26 11:05:16;;;;;;;6.47;5.78;;;28.10;99.90;;;;;;5031271;28;20037;-82
2021/01/26 11:07:42;;;;;;;7.28;6.57;;;28.60;99.90;;;;;;5031319;28;20046;-82
2021/01/26 11:10:09;;;;;;;5.93;5.38;;;28.10;99.90;;;;;;5030183;28;20451;-82
2021/01/26 11:12:38;;;;;;;6.95;6.25;;;28.40;99.90;;;;;;5029233;28;20025;-83
2021/01/26 11:15:13;;;;;;;7.78;7.00;;;29.30;99.90;;;;;;5031706;28;20022;-83
2021/01/26 11:17:38;;;;;;;8.88;6.97;;;28.50;99.90;;;;;;5029621;28;20487;-82
2021/01/26 11:20:06;;;;;;;7.60;6.90;;;29.20;99.90;;;;;;5031145;28;20024;-81
2021/01/26 11:22:32;;;;;;;8.48;7.68;;;29.00;99.90;;;;;;5030674;28;20036;-83
2021/01/26 11:24:58;;;;;;;7.68;6.90;;;29.50;99.90;;;;;;5030892;28;20021;-83
2021/01/26 11:27:23;;;;;;;8.02;7.28;;;29.80;99.90;;;;;;5029460;28;20056;-82
2021/01/26 11:29:49;;;;;;;9.85;8.85;;;29.80;99.90;;;;;;5030593;28;20026;-81
2021/01/26 11:32:17;;;;;;;9.02;7.40;;;28.90;99.90;;;;;;5030758;28;20025;-83
2021/01/26 11:34:44;;;;;;;7.57;6.88;;;29.30;99.90;;;;;;5031850;28;20100;-81
2021/01/26 11:37:09;;;;;;;8.25;7.45;;;29.20;99.90;;;;;;5031028;28;20025;-81
2021/01/26 11:39:35;;;;;;;7.80;7.07;;;28.40;99.90;;;;;;5031715;28;20136;-82
2021/01/26 11:42:00;;;;;;;9.40;8.40;;;28.00;99.90;;;;;;5031567;28;20533;-83
2021/01/26 11:44:26;;;;;;;7.25;6.57;;;28.40;99.90;;;;;;5031348;28;20028;-83
2021/01/26 11:46:51;;;;;;;6.25;5.68;;;27.10;99.90;;;;;;5031813;28;20442;-81
2021/01/26 11:49:17;;;;;;;3.63;3.33;;;27.70;99.90;;;;;;5031930;28;20030;-81
2021/01/26 11:51:43;;;;;;;4.70;4.22;;;27.20;99.90;;;;;;5035301;28;20029;-81
2021/01/26 11:54:08;;;;;;;15.32;4.95;;;27.70;99.90;;;;;;5034602;28;20025;-82
2021/01/26 11:56:34;;;;;;;4.95;4.13;;;28.40;99.90;;;;;;5033495;28;20399;-80
2021/01/26 11:59:00;;;;;;;4.30;3.75;;;28.50;99.90;;;;;;5035200;28;20026;-82
2021/01/26 12:01:25;;;;;;;5.22;4.30;;;28.70;99.90;;;;;;5033879;28;20053;-80
2021/01/26 12:03:51;;;;;;;4.75;3.72;;;28.00;99.90;;;;;;5033059;28;20501;-80
2021/01/26 12:06:17;;;;;;;11.38;6.20;;;28.40;99.90;;;;;;5033776;28;20049;-80
2021/01/26 12:08:42;;;;;;;7.57;6.70;;;28.60;99.90;;;;;;5033769;28;20029;-80
2021/01/26 12:11:08;;;;;;;8.25;6.32;;;28.30;99.90;;;;;;5033816;28;20029;-80
2021/01/26 12:13:34;;;;;;;7.90;6.18;;;26.80;99.90;;;;;;5033973;28;20022;-80
2021/01/26 12:16:00;;;;;;;6.18;5.57;;;25.50;99.90;;;;;;5033813;28;20031;-80
2021/01/26 12:18:25;;;;;;;8.85;6.00;;;26.80;99.90;;;;;;5033285;28;20025;-81
2021/01/26 12:20:52;;;;;;;6.90;5.97;;;27.00;99.90;;;;;;5034119;28;20040;-80
2021/01/26 12:23:17;;;;;;;7.28;6.20;;;27.00;99.90;;;;;;5034003;28;20030;-80
2021/01/26 12:25:43;;;;;;;6.95;5.78;;;26.30;99.90;;;;;;5034556;28;20044;-80
2021/01/26 12:28:11;;;;;;;6.80;4.72;;;26.50;99.90;;;;;;5035243;28;20021;-80
2021/01/26 12:30:37;;;;;;;5.22;4.72;;;26.40;99.90;;;;;;5034643;28;20056;-80
2021/01/26 12:33:02;;;;;;;6.13;5.53;;;26.40;99.90;;;;;;5034111;28;20049;-80
2021/01/26 12:35:31;;;;;;;8.32;6.57;;;25.00;99.90;;;;;;5035130;28;20147;-80
2021/01/26 12:37:58;;;;;;;7.85;5.70;;;24.30;99.90;;;;;;5033869;28;20018;-80
2021/01/26 12:40:24;;;;;;;10.32;4.72;;;25.40;99.90;;;;;;5034935;28;20030;-80
2021/01/26 12:42:49;;;;;;;6.03;5.20;;;24.30;99.90;;;;;;5034987;28;20117;-80
2021/01/26 12:45:18;;;;;;;6.18;5.00;;;23.60;99.90;;;;;;5035028;28;20109;-80
2021/01/26 12:47:44;;;;;;;6.70;5.00;;;24.60;99.90;;;;;;5034819;28;20025;-80
2021/01/26 12:50:12;;;;;;;8.27;5.70;;;23.40;99.90;;;;;;5034431;28;20466;-80
2021/01/26 12:52:38;;;;;;;7.75;6.10;;;21.30;99.90;;;;;;5018446;28;20017;-80
2021/01/26 12:55:04;;;;;;;8.38;6.38;;;19.50;99.90;;;;;;5034689;28;20107;-80
2021/01/26 12:57:30;;;;;;;7.18;6.35;;;20.20;99.90;;;;;;5032801;28;20029;-80
2021/01/26 12:59:56;;;;;;;9.57;6.05;;;19.30;99.90;;;;;;5032387;28;20033;-80
2021/01/26 13:02:22;;;;;;;8.18;5.90;;;17.40;99.90;;;;;;5031527;28;20414;-80
2021/01/26 13:04:48;;;;;;;5.85;5.25;;;16.60;99.90;;;;;;5032377;28;20044;-79
2021/01/26 13:07:14;;;;;;;5.28;4.78;;;16.50;99.90;;;;;;5031271;28;20050;-81
2021/01/26 13:09:39;;;;;;;6.15;4.88;;;18.80;99.90;;;;;;5031731;28;20037;-82
2021/01/26 13:12:05;;;;;;;6.20;4.50;;;19.30;99.90;;;;;;5033239;28;20402;-82
2021/01/26 13:14:31;;;;;;;5.93;3.95;;;20.40;99.90;;;;;;5033700;28;20108;-82
2021/01/26 13:16:57;;;;;;;6.35;3.80;;;21.00;99.90;;;;;;5033807;28;20148;-82
2021/01/26 13:19:22;;;;;;;4.78;3.78;;;21.70;99.90;;;;;;5033635;28;20040;-82
2021/01/26 13:21:51;;;;;;;5.47;3.65;;;22.40;99.90;;;;;;5033116;28;20514;-82